Weather at Salonti Airstrip

Public forecast

Using degrees Celsius for public forecast. Weather courtesy of forecast.io.

Closest aviation weather report (METAR) to Salonti Airstrip

Closest report is Sibiu International Airport, 16.7 nm (30.9 km) SE. Retrieved 2020/09/22 23:30 UTC (0 seconds ago):

LRSB 222330Z 25003KT CAVOK 10/08 Q1017

Closest aviation forecast (TAF) to Salonti Airstrip

Closest forecast is Sibiu International Airport, 16.7 nm (30.9 km) SE. Retrieved 2020/09/22 18:33 UTC (5 hours ago):

TAF LRSB 221700Z 2218/2318 VRB04KT CAVOK PROB40 TEMPO 2219/2222 16010KT BECMG 2309/2311 12010KT